Time;durP1;ratioP1;P1;durP2;ratioP2;P2;SDS_P1;SDS_P2;PMS_P1;PMS_P2;Temp;Humidity;BMP_temperature;BMP_pressure;BME280_temperature;BME280_humidity;BME280_pressure;Samples;Min_cycle;Max_cycle;Signal;HPM_P1;HPM_P2
2022/05/13 06:40:12;;;;;;;9.00;2.53;;;12.20;99.90;;;;;;4886910;29;20290;-75
2022/05/13 06:42:56;;;;;;;10.50;2.73;;;12.30;99.90;;;;;;4898200;29;20210;-74
2022/05/13 06:45:41;;;;;;;7.57;2.70;;;12.30;99.90;;;;;;4896464;29;20195;-74
2022/05/13 06:48:25;;;;;;;9.30;2.40;;;12.30;99.90;;;;;;4902266;29;20214;-75
2022/05/13 06:51:10;;;;;;;13.57;2.97;;;12.40;99.90;;;;;;4892958;29;20203;-75
2022/05/13 06:53:54;;;;;;;8.93;2.70;;;12.40;99.90;;;;;;4901765;29;20231;-75
2022/05/13 06:56:40;;;;;;;7.03;2.63;;;12.50;99.90;;;;;;4891724;29;20199;-74
2022/05/13 06:59:24;;;;;;;11.60;3.17;;;12.50;99.90;;;;;;4906614;29;20275;-74
2022/05/13 07:02:08;;;;;;;7.80;2.27;;;12.60;99.90;;;;;;4910502;29;20219;-74
2022/05/13 07:04:52;;;;;;;6.10;2.20;;;12.70;99.90;;;;;;4910618;29;20210;-74
2022/05/13 07:07:36;;;;;;;6.77;2.57;;;12.80;99.90;;;;;;4906855;29;20230;-73
2022/05/13 07:10:21;;;;;;;7.87;2.70;;;12.80;99.90;;;;;;4902307;29;20195;-75
2022/05/13 07:13:07;;;;;;;10.50;2.77;;;12.90;99.90;;;;;;4900965;29;20215;-74
2022/05/13 07:15:51;;;;;;;8.23;3.00;;;13.00;99.90;;;;;;4902959;29;20227;-73
2022/05/13 07:18:36;;;;;;;10.37;3.03;;;13.00;99.90;;;;;;4900583;29;20222;-74
2022/05/13 07:21:20;;;;;;;9.33;2.90;;;13.10;99.90;;;;;;4907052;29;20179;-73
2022/05/13 07:24:05;;;;;;;11.83;3.17;;;13.10;99.90;;;;;;4902367;29;20198;-74
2022/05/13 07:26:49;;;;;;;10.20;3.10;;;13.20;99.90;;;;;;4914081;29;20269;-72
2022/05/13 07:29:34;;;;;;;12.20;3.60;;;13.30;99.90;;;;;;4903968;29;20270;-76
2022/05/13 07:32:18;;;;;;;11.60;3.30;;;13.40;99.90;;;;;;4898542;29;20215;-74
2022/05/13 07:35:03;;;;;;;11.23;3.10;;;13.50;99.90;;;;;;4915129;29;20195;-74
2022/05/13 07:37:50;;;;;;;15.57;3.20;;;13.60;99.90;;;;;;4914956;29;20287;-73
2022/05/13 07:43:38;;;;;;;8.40;2.73;;;13.80;99.90;;;;;;4898941;29;20208;-73
2022/05/13 07:46:22;;;;;;;9.40;2.87;;;14.00;99.90;;;;;;4896979;29;20284;-73
2022/05/13 07:49:10;;;;;;;10.63;3.17;;;14.10;99.90;;;;;;4900976;29;20274;-73
2022/05/13 07:51:54;;;;;;;24.47;3.40;;;14.20;99.90;;;;;;4897252;29;20196;-76
2022/05/13 07:54:38;;;;;;;12.73;3.80;;;14.30;99.90;;;;;;4909891;29;20194;-73
2022/05/13 07:57:22;;;;;;;7.73;3.23;;;14.40;99.90;;;;;;4917761;29;20214;-75
2022/05/13 08:00:29;;;;;;;12.10;3.60;;;14.50;99.90;;;;;;4909357;29;20186;-73
2022/05/13 08:03:15;;;;;;;10.13;3.10;;;14.60;99.90;;;;;;4910209;29;20204;-73
2022/05/13 08:06:03;;;;;;;14.37;3.27;;;14.70;99.90;;;;;;4904114;29;20227;-73
2022/05/13 08:08:53;;;;;;;9.00;3.30;;;14.80;99.90;;;;;;4908108;29;20678;-72
2022/05/13 08:11:37;;;;;;;10.47;3.70;;;14.80;99.90;;;;;;4912893;29;20251;-74
2022/05/13 08:14:22;;;;;;;12.87;3.57;;;15.00;99.90;;;;;;4903771;29;20204;-75
2022/05/13 08:17:06;;;;;;;12.47;3.67;;;15.10;99.90;;;;;;4904917;29;20219;-75
2022/05/13 08:19:50;;;;;;;8.83;3.30;;;15.10;99.90;;;;;;4912773;29;20234;-75
2022/05/13 08:22:34;;;;;;;8.50;3.10;;;15.20;99.90;;;;;;4904528;29;20284;-76
2022/05/13 08:25:19;;;;;;;8.73;3.37;;;15.30;99.90;;;;;;4908656;29;20191;-75
2022/05/13 08:28:08;;;;;;;6.27;2.90;;;15.40;99.90;;;;;;4908444;29;20239;-74
2022/05/13 08:30:52;;;;;;;7.00;2.40;;;15.40;99.90;;;;;;4901161;29;20218;-74
2022/05/13 08:33:37;;;;;;;7.13;2.57;;;15.50;99.90;;;;;;4894755;29;20236;-77
2022/05/13 08:36:21;;;;;;;10.30;2.73;;;15.60;99.90;;;;;;4907666;29;20202;-77
2022/05/13 08:39:07;;;;;;;6.27;2.40;;;15.60;99.90;;;;;;4910387;29;20199;-74
2022/05/13 08:42:17;;;;;;;8.33;2.60;;;15.70;99.90;;;;;;4903140;29;20215;-75
2022/05/13 08:45:01;;;;;;;6.80;2.50;;;15.70;99.90;;;;;;4909606;29;20259;-75
2022/05/13 08:47:57;;;;;;;8.73;3.03;;;15.80;99.90;;;;;;4907550;29;20280;-75
2022/05/13 08:51:03;;;;;;;8.10;2.03;;;15.90;99.90;;;;;;4910888;29;20243;-74
2022/05/13 08:54:15;;;;;;;12.70;2.07;;;16.00;99.90;;;;;;4901760;29;20247;-75
2022/05/13 08:57:06;;;;;;;8.23;1.70;;;16.10;99.90;;;;;;4908400;29;20692;-74
2022/05/13 08:59:53;;;;;;;6.90;1.83;;;16.30;99.90;;;;;;4907254;29;20818;-74
2022/05/13 09:02:43;;;;;;;10.47;2.07;;;16.40;99.90;;;;;;4908763;29;20234;-74
2022/05/13 09:05:52;;;;;;;4.07;1.63;;;16.50;99.90;;;;;;4910658;29;20284;-75
2022/05/13 09:08:37;;;;;;;5.20;1.47;;;16.70;99.90;;;;;;4907897;29;20218;-75
2022/05/13 09:11:24;;;;;;;3.63;1.30;;;16.70;99.90;;;;;;4903020;29;20593;-74
2022/05/13 09:14:24;;;;;;;4.63;1.60;;;16.80;99.90;;;;;;4903604;29;20232;-73
2022/05/13 09:17:24;;;;;;;5.43;1.57;;;16.70;99.90;;;;;;4903695;29;20215;-74
2022/05/13 09:20:16;;;;;;;5.47;1.90;;;16.60;99.90;;;;;;4898745;29;20263;-76
2022/05/13 09:23:00;;;;;;;7.67;1.47;;;16.60;99.90;;;;;;4903188;29;20199;-76
2022/05/13 09:26:01;;;;;;;6.60;1.83;;;16.60;99.90;;;;;;4907430;29;20686;-73
2022/05/13 09:29:11;;;;;;;7.97;1.80;;;16.70;99.90;;;;;;4907878;29;20190;-73
2022/05/13 09:32:00;;;;;;;3.97;1.53;;;16.70;99.90;;;;;;4905588;29;20186;-73
2022/05/13 09:34:56;;;;;;;4.97;1.67;;;16.70;99.90;;;;;;4906398;29;20255;-73
2022/05/13 09:37:43;;;;;;;5.13;1.80;;;16.70;99.90;;;;;;4912584;29;20220;-75
2022/05/13 09:40:28;;;;;;;8.77;1.97;;;16.70;99.90;;;;;;4906887;29;20214;-73
2022/05/13 09:43:50;;;;;;;7.07;1.80;;;16.70;99.90;;;;;;4908522;29;20242;-76
2022/05/13 09:46:44;;;;;;;4.70;1.50;;;16.70;99.90;;;;;;4904752;29;20738;-74
2022/05/13 09:49:39;;;;;;;8.70;2.10;;;16.80;99.90;;;;;;4907980;29;20279;-73
2022/05/13 09:52:34;;;;;;;5.93;1.97;;;16.80;99.90;;;;;;4911391;29;20210;-75
2022/05/13 09:55:31;;;;;;;6.63;1.93;;;16.80;99.90;;;;;;4903926;29;20867;-72
2022/05/13 09:58:26;;;;;;;9.23;2.30;;;16.80;99.90;;;;;;4896737;29;20214;-73
2022/05/13 10:01:13;;;;;;;6.37;1.90;;;16.80;99.90;;;;;;4900684;29;20211;-75
2022/05/13 10:04:12;;;;;;;6.57;2.00;;;16.80;99.90;;;;;;4907014;29;20219;-76
2022/05/13 10:07:06;;;;;;;4.87;1.70;;;16.90;99.90;;;;;;4906016;29;20226;-74
2022/05/13 10:16:44;;;;;;;4.47;1.63;;;17.00;99.90;;;;;;4917595;29;20183;-74
2022/05/13 10:19:42;;;;;;;2.60;1.43;;;17.00;99.90;;;;;;4907132;29;20690;-74
2022/05/13 10:22:50;;;;;;;7.20;1.63;;;17.00;99.90;;;;;;4903989;29;20275;-77
2022/05/13 10:26:01;;;;;;;5.23;1.30;;;17.00;99.90;;;;;;4899698;29;20222;-74
2022/05/13 10:28:57;;;;;;;4.30;1.60;;;17.00;99.90;;;;;;4905637;29;20340;-75
2022/05/13 10:31:45;;;;;;;5.40;1.93;;;16.90;99.90;;;;;;4893677;29;20278;-74
2022/05/13 10:34:36;;;;;;;6.97;1.83;;;16.90;99.90;;;;;;4905285;29;20219;-76
2022/05/13 10:37:41;;;;;;;3.53;1.67;;;16.90;99.90;;;;;;4904703;29;20279;-73
2022/05/13 10:40:29;;;;;;;6.97;2.07;;;16.90;99.90;;;;;;4903358;29;20252;-75
2022/05/13 10:43:21;;;;;;;6.70;1.73;;;16.90;99.90;;;;;;4905155;29;20300;-74
2022/05/13 10:46:26;;;;;;;5.33;1.97;;;17.00;99.90;;;;;;4902076;29;20256;-75
2022/05/13 10:49:13;;;;;;;4.27;1.50;;;17.00;99.90;;;;;;4892423;29;20271;-72
2022/05/13 10:52:18;;;;;;;3.97;1.03;;;17.10;99.90;;;;;;4916346;29;20202;-73
2022/05/13 10:55:40;;;;;;;7.70;1.43;;;17.00;99.90;;;;;;4902238;29;20187;-74
2022/05/13 10:58:46;;;;;;;4.23;1.17;;;17.00;99.90;;;;;;4909660;29;20323;-76
2022/05/13 11:01:55;;;;;;;6.43;1.40;;;17.00;99.90;;;;;;4903609;29;20260;-73
2022/05/13 11:05:07;;;;;;;7.03;1.20;;;17.10;99.90;;;;;;4907101;29;20811;-73
2022/05/13 11:08:17;;;;;;;4.37;1.43;;;17.20;99.90;;;;;;4904496;29;20346;-73
2022/05/13 11:11:26;;;;;;;3.57;1.07;;;17.20;99.90;;;;;;4899036;29;20179;-74
2022/05/13 11:14:26;;;;;;;3.77;1.40;;;17.20;99.90;;;;;;4918146;29;20650;-73
2022/05/13 11:17:16;;;;;;;4.77;1.70;;;17.10;99.90;;;;;;4903301;29;20233;-72
2022/05/13 11:20:19;;;;;;;4.03;1.40;;;17.00;99.90;;;;;;4905451;29;20553;-73
2022/05/13 11:23:22;;;;;;;5.10;1.73;;;17.00;99.90;;;;;;4904041;29;20194;-72
2022/05/13 11:26:25;;;;;;;6.40;1.73;;;16.90;99.90;;;;;;4912822;29;20275;-74
2022/05/13 11:29:19;;;;;;;5.93;1.80;;;16.90;99.90;;;;;;4904032;29;20643;-73
2022/05/13 11:32:25;;;;;;;6.37;2.23;;;16.90;99.90;;;;;;4913444;29;20206;-73
2022/05/13 11:35:38;;;;;;;7.67;1.87;;;17.00;99.90;;;;;;4902063;29;20187;-73
2022/05/13 11:38:42;;;;;;;5.53;1.70;;;17.00;99.90;;;;;;4919488;29;20246;-73
2022/05/13 11:41:48;;;;;;;3.97;1.50;;;17.00;99.90;;;;;;4905659;29;20593;-74
2022/05/13 11:45:11;;;;;;;10.47;1.60;;;17.10;99.90;;;;;;4918166;29;20183;-74
2022/05/13 11:48:21;;;;;;;3.97;1.20;;;17.00;99.90;;;;;;4916535;29;20331;-75
2022/05/13 11:51:15;;;;;;;5.43;0.80;;;17.00;99.90;;;;;;4898870;29;20244;-74
2022/05/13 11:53:59;;;;;;;6.33;1.03;;;17.00;99.90;;;;;;4898694;29;20303;-74
2022/05/13 11:56:46;;;;;;;4.13;0.90;;;17.00;99.90;;;;;;4903915;29;20309;-74
2022/05/13 11:59:30;;;;;;;3.87;0.90;;;17.10;99.90;;;;;;4904913;29;20255;-74
2022/05/13 12:02:48;;;;;;;2.67;1.03;;;17.20;99.90;;;;;;4919135;29;20222;-74
2022/05/13 12:05:43;;;;;;;2.83;0.90;;;17.30;99.90;;;;;;4917750;29;20279;-73
2022/05/13 12:08:36;;;;;;;3.87;0.90;;;17.60;99.90;;;;;;4918659;29;20258;-76
2022/05/13 12:11:52;;;;;;;4.77;0.80;;;17.60;99.90;;;;;;4905147;29;20203;-74
2022/05/13 12:14:53;;;;;;;4.00;1.00;;;17.60;99.90;;;;;;4921278;29;20329;-74
2022/05/13 12:17:44;;;;;;;1.90;0.90;;;17.60;99.90;;;;;;4916479;29;20233;-74
2022/05/13 12:20:35;;;;;;;2.93;0.90;;;17.60;99.90;;;;;;4909567;29;20246;-74
2022/05/13 12:23:51;;;;;;;5.53;1.13;;;17.60;99.90;;;;;;4923606;29;20610;-74
2022/05/13 12:26:51;;;;;;;1.40;0.70;;;17.70;99.90;;;;;;4903076;29;20198;-74
2022/05/13 12:29:58;;;;;;;2.67;0.83;;;17.70;99.90;;;;;;4921660;29;20274;-74
2022/05/13 12:32:46;;;;;;;2.17;0.77;;;17.80;99.90;;;;;;4909613;29;20227;-74
2022/05/13 12:39:04;;;;;;;5.50;0.87;;;17.90;99.90;;;;;;4916492;29;20238;-74
2022/05/13 12:42:06;;;;;;;2.47;0.90;;;17.90;99.90;;;;;;4907734;29;20275;-75
2022/05/13 12:45:00;;;;;;;2.47;0.83;;;17.90;99.90;;;;;;4910371;29;20312;-76
2022/05/13 12:48:16;;;;;;;3.83;1.10;;;17.90;99.90;;;;;;4910422;29;20234;-75
2022/05/13 12:51:09;;;;;;;3.17;1.37;;;18.00;99.90;;;;;;4903462;29;20570;-74
2022/05/13 12:53:57;;;;;;;2.00;1.47;;;18.10;99.90;;;;;;4898690;29;20211;-74
2022/05/13 12:56:50;;;;;;;2.63;1.10;;;18.10;99.90;;;;;;4899992;29;20218;-75
2022/05/13 12:59:39;;;;;;;5.47;1.27;;;18.10;99.90;;;;;;4904856;29;20220;-74
2022/05/13 13:02:28;;;;;;;3.33;1.00;;;18.10;99.90;;;;;;4896499;29;20244;-74
2022/05/13 13:05:20;;;;;;;1.63;0.90;;;18.10;99.90;;;;;;4887448;29;20222;-74
2022/05/13 13:08:18;;;;;;;5.80;1.30;;;18.10;99.90;;;;;;4904841;29;20236;-74
2022/05/13 13:11:25;;;;;;;3.83;1.20;;;18.10;99.90;;;;;;4902023;29;20191;-75
2022/05/13 13:14:20;;;;;;;4.63;1.00;;;18.20;99.90;;;;;;4919389;29;20226;-74
2022/05/13 13:17:19;;;;;;;3.50;1.10;;;18.20;99.90;;;;;;4894216;29;20223;-73
2022/05/13 13:20:07;;;;;;;4.03;1.10;;;18.30;99.90;;;;;;4899376;29;20191;-74
2022/05/13 13:23:04;;;;;;;5.20;1.20;;;18.30;99.90;;;;;;4909975;29;20199;-74
2022/05/13 13:25:52;;;;;;;5.27;1.47;;;18.20;99.90;;;;;;4901380;29;20191;-74
2022/05/13 13:28:40;;;;;;;2.93;1.03;;;18.20;99.90;;;;;;4909597;29;20214;-74
2022/05/13 13:31:27;;;;;;;6.40;1.30;;;18.20;99.90;;;;;;4902824;29;20195;-74
2022/05/13 13:34:35;;;;;;;5.50;1.10;;;18.40;99.90;;;;;;4908071;29;20227;-74
2022/05/13 13:37:34;;;;;;;2.30;1.00;;;18.50;99.90;;;;;;4903747;29;20294;-75
2022/05/13 13:40:22;;;;;;;2.93;1.30;;;18.70;99.90;;;;;;4903744;29;20187;-75
2022/05/13 13:43:18;;;;;;;2.40;0.90;;;18.80;99.90;;;;;;4911910;29;20202;-73
2022/05/13 13:46:11;;;;;;;4.33;0.87;;;18.90;99.90;;;;;;4900705;29;20725;-74
2022/05/13 13:49:00;;;;;;;2.97;1.13;;;18.90;99.90;;;;;;4905881;29;20191;-75
2022/05/13 13:51:56;;;;;;;3.87;1.13;;;18.90;99.90;;;;;;4906342;29;20223;-74
2022/05/13 13:54:53;;;;;;;3.00;1.08;;;18.80;99.90;;;;;;4903533;29;20195;-74
2022/05/13 13:57:43;;;;;;;5.10;0.97;;;18.70;99.90;;;;;;4900699;29;20572;-74
2022/05/13 14:00:38;;;;;;;5.43;1.10;;;18.70;99.90;;;;;;4905450;29;20260;-74
2022/05/13 14:03:27;;;;;;;5.00;1.10;;;18.70;99.90;;;;;;4905028;29;20226;-73
2022/05/13 14:06:15;;;;;;;3.93;1.20;;;18.80;99.90;;;;;;4903044;29;20252;-73
2022/05/13 14:09:00;;;;;;;8.00;0.90;;;18.70;99.90;;;;;;4901556;29;20192;-74
2022/05/13 14:11:45;;;;;;;2.30;1.20;;;18.80;99.90;;;;;;4897468;29;20243;-75
2022/05/13 14:14:31;;;;;;;7.70;1.00;;;18.80;99.90;;;;;;4901700;29;20196;-75
2022/05/13 14:17:21;;;;;;;4.90;1.07;;;18.80;99.90;;;;;;4900509;29;20598;-74
2022/05/13 14:20:13;;;;;;;7.80;1.37;;;19.00;99.90;;;;;;4907511;29;20187;-75
2022/05/13 14:23:08;;;;;;;2.50;0.90;;;18.90;99.90;;;;;;4896865;29;20204;-76
2022/05/13 14:25:57;;;;;;;4.37;1.07;;;19.00;99.90;;;;;;4898990;29;20221;-76
2022/05/13 14:28:46;;;;;;;3.27;1.07;;;19.00;99.90;;;;;;4897478;29;20258;-75
2022/05/13 14:31:34;;;;;;;2.87;0.93;;;19.10;99.90;;;;;;4889067;29;20275;-74
2022/05/13 14:34:20;;;;;;;3.33;1.07;;;19.10;99.90;;;;;;4908670;29;20223;-73
2022/05/13 14:37:08;;;;;;;6.40;1.00;;;19.20;99.90;;;;;;4907708;29;20241;-74
2022/05/13 14:39:54;;;;;;;4.57;0.80;;;19.30;99.90;;;;;;4911917;29;20671;-73
2022/05/13 14:42:51;;;;;;;1.33;0.90;;;19.30;99.90;;;;;;4894724;29;20203;-72
2022/05/13 14:45:42;;;;;;;4.40;1.03;;;19.30;99.90;;;;;;4887212;29;20208;-74
2022/05/13 14:48:26;;;;;;;5.07;0.87;;;19.30;99.90;;;;;;4906473;29;20219;-74
2022/05/13 14:51:19;;;;;;;3.33;1.00;;;19.20;99.90;;;;;;4903616;29;20250;-73
2022/05/13 14:54:04;;;;;;;5.10;1.40;;;19.20;99.90;;;;;;4901504;29;20252;-74
2022/05/13 14:56:51;;;;;;;3.13;1.10;;;19.20;99.90;;;;;;4900802;29;20584;-74
2022/05/13 14:59:42;;;;;;;2.45;1.10;;;19.30;99.90;;;;;;4907585;29;20262;-75
2022/05/13 15:02:46;;;;;;;3.00;0.88;;;19.40;99.90;;;;;;4892705;29;20422;-74
2022/05/13 15:05:39;;;;;;;3.30;1.00;;;19.30;99.90;;;;;;4912291;29;20235;-74
2022/05/13 15:08:44;;;;;;;3.00;1.00;;;19.30;99.90;;;;;;4909948;29;20306;-74
2022/05/13 15:11:28;;;;;;;4.07;1.15;;;19.20;99.90;;;;;;4905203;29;20228;-74
2022/05/13 15:14:12;;;;;;;7.05;1.35;;;19.20;99.90;;;;;;4898492;29;20278;-74
2022/05/13 15:16:59;;;;;;;3.75;1.25;;;19.20;99.90;;;;;;4897428;29;20339;-75
2022/05/13 15:19:43;;;;;;;3.35;1.02;;;19.20;99.90;;;;;;4910897;29;20259;-75
2022/05/13 15:22:27;;;;;;;3.37;1.20;;;19.20;99.90;;;;;;4919583;29;20183;-74
2022/05/13 15:25:12;;;;;;;5.70;1.07;;;19.10;99.90;;;;;;4908205;29;20232;-74
2022/05/13 15:27:57;;;;;;;7.03;0.80;;;19.10;99.90;;;;;;4917052;29;20218;-74
2022/05/13 15:30:42;;;;;;;4.30;1.33;;;19.10;99.90;;;;;;4906877;29;20198;-74
2022/05/13 15:33:27;;;;;;;5.20;1.10;;;19.10;99.90;;;;;;4902085;29;20250;-72
2022/05/13 15:36:22;;;;;;;3.87;1.03;;;19.10;99.90;;;;;;4908827;29;20238;-74
2022/05/13 15:39:08;;;;;;;2.10;0.93;;;19.10;99.90;;;;;;4908317;29;20183;-74
2022/05/13 15:41:52;;;;;;;6.10;1.45;;;19.10;99.90;;;;;;4922284;29;20279;-74
2022/05/13 15:44:36;;;;;;;6.67;1.53;;;19.10;99.90;;;;;;4896497;29;20260;-73
2022/05/13 15:47:25;;;;;;;9.13;1.35;;;19.10;99.90;;;;;;4902422;29;20244;-74
2022/05/13 15:53:14;;;;;;;3.38;1.17;;;19.10;99.90;;;;;;4905411;29;20746;-74
2022/05/13 15:56:01;;;;;;;4.03;1.00;;;19.10;99.90;;;;;;4915091;29;20194;-74
2022/05/13 15:58:45;;;;;;;3.08;1.10;;;19.10;99.90;;;;;;4903109;29;20471;-74
2022/05/13 16:01:30;;;;;;;6.40;1.13;;;19.10;99.90;;;;;;4899266;29;20228;-74
2022/05/13 16:04:14;;;;;;;5.53;1.40;;;19.00;99.90;;;;;;4898741;29;20197;-74
2022/05/13 16:06:58;;;;;;;4.28;1.33;;;19.00;99.90;;;;;;4904266;29;20202;-74
2022/05/13 16:09:43;;;;;;;13.63;1.30;;;19.00;99.90;;;;;;4918150;29;20239;-74
2022/05/13 16:12:32;;;;;;;7.87;1.27;;;19.00;99.90;;;;;;4904090;29;20741;-74
2022/05/13 16:15:21;;;;;;;2.20;1.10;;;19.00;99.90;;;;;;4911239;29;20232;-75
2022/05/13 16:18:16;;;;;;;2.83;1.08;;;19.00;99.90;;;;;;4894014;29;20208;-75
2022/05/13 16:21:02;;;;;;;4.97;1.20;;;18.90;99.90;;;;;;4919879;29;20215;-74
2022/05/13 16:23:50;;;;;;;3.63;1.40;;;18.90;99.90;;;;;;4904122;29;20191;-74
2022/05/13 16:26:35;;;;;;;4.97;1.20;;;18.90;99.90;;;;;;4900096;29;20183;-75
2022/05/13 16:29:19;;;;;;;10.07;1.73;;;18.90;99.90;;;;;;4900691;29;20610;-74
2022/05/13 16:32:04;;;;;;;6.87;1.57;;;18.90;99.90;;;;;;4898283;29;20203;-74
2022/05/13 16:34:48;;;;;;;10.47;1.33;;;18.90;99.90;;;;;;4921343;29;20727;-73
2022/05/13 16:37:41;;;;;;;2.70;1.27;;;19.00;99.90;;;;;;4918000;29;20211;-74
2022/05/13 16:40:30;;;;;;;4.63;1.13;;;19.00;99.90;;;;;;4906544;29;20287;-74
2022/05/13 16:43:15;;;;;;;2.87;1.43;;;19.00;99.90;;;;;;4913087;29;20211;-74
2022/05/13 16:45:59;;;;;;;6.50;1.87;;;19.00;99.90;;;;;;4908537;29;20199;-74
2022/05/13 16:48:44;;;;;;;3.03;1.30;;;18.90;99.90;;;;;;4898793;29;20579;-74
2022/05/13 16:51:29;;;;;;;4.03;1.13;;;18.90;99.90;;;;;;4899603;29;20278;-74
2022/05/13 16:54:13;;;;;;;9.77;1.60;;;18.90;99.90;;;;;;4906759;29;20219;-74
2022/05/13 16:56:57;;;;;;;7.15;1.05;;;18.90;99.90;;;;;;4903800;29;20238;-74
2022/05/13 16:59:42;;;;;;;6.95;1.75;;;18.80;99.90;;;;;;4917318;29;20199;-74
2022/05/13 17:02:26;;;;;;;4.73;1.40;;;18.80;99.90;;;;;;4909009;29;20190;-74
2022/05/13 17:05:12;;;;;;;10.00;1.60;;;18.70;99.90;;;;;;4898616;29;20585;-74
2022/05/13 17:07:58;;;;;;;7.57;1.33;;;18.70;99.90;;;;;;4916000;29;20207;-75
2022/05/13 17:16:49;;;;;;;4.93;1.30;;;18.60;99.90;;;;;;4923654;29;20282;-74
2022/05/13 17:19:33;;;;;;;5.87;1.57;;;18.60;99.90;;;;;;4912415;29;20328;-73
2022/05/13 17:22:18;;;;;;;8.27;1.50;;;18.60;99.90;;;;;;4907293;29;20223;-74
2022/05/13 17:25:04;;;;;;;4.97;1.33;;;18.70;99.90;;;;;;4900201;29;20648;-74
2022/05/13 17:27:53;;;;;;;5.90;1.27;;;18.70;99.90;;;;;;4923606;29;20207;-74
2022/05/13 17:30:38;;;;;;;7.13;1.80;;;18.70;99.90;;;;;;4895740;29;20241;-74
2022/05/13 17:33:22;;;;;;;6.73;1.50;;;18.60;99.90;;;;;;4914791;29;20215;-73
2022/05/13 17:36:07;;;;;;;6.70;1.90;;;18.60;99.90;;;;;;4903702;29;20204;-74
2022/05/13 17:38:55;;;;;;;5.00;0.90;;;18.60;99.90;;;;;;4922045;29;20227;-74
2022/05/13 17:41:43;;;;;;;3.03;1.37;;;18.60;99.90;;;;;;4904561;29;20226;-75
2022/05/13 17:44:28;;;;;;;4.70;1.13;;;18.50;99.90;;;;;;4927550;29;20203;-75
2022/05/13 17:47:12;;;;;;;6.10;1.30;;;18.50;99.90;;;;;;4901025;29;20223;-74
2022/05/13 17:49:56;;;;;;;6.43;1.43;;;18.40;99.90;;;;;;4899863;29;20196;-75
2022/05/13 17:52:42;;;;;;;12.38;2.83;;;18.40;99.90;;;;;;4911076;29;20210;-74
2022/05/13 17:55:26;;;;;;;7.47;1.83;;;18.40;99.90;;;;;;4907660;29;20679;-75
2022/05/13 17:58:10;;;;;;;5.07;1.70;;;18.30;99.90;;;;;;4900745;29;20771;-74
2022/05/13 18:00:54;;;;;;;4.70;1.40;;;18.30;99.90;;;;;;4912278;29;20747;-75
2022/05/13 18:03:38;;;;;;;5.77;1.40;;;18.20;99.90;;;;;;4902091;29;20211;-74
2022/05/13 18:06:22;;;;;;;6.17;1.90;;;18.20;99.90;;;;;;4902319;29;20208;-74
2022/05/13 18:09:06;;;;;;;5.73;1.73;;;18.10;99.90;;;;;;4909479;29;20554;-75
2022/05/13 18:11:51;;;;;;;3.30;1.47;;;18.00;99.90;;;;;;4904669;29;20232;-74
2022/05/13 18:14:36;;;;;;;4.70;1.70;;;18.00;99.90;;;;;;4913508;29;20258;-74
2022/05/13 18:17:20;;;;;;;7.77;1.60;;;18.00;99.90;;;;;;4899359;29;20214;-75
2022/05/13 18:20:06;;;;;;;7.77;1.90;;;18.00;99.90;;;;;;4901150;29;20200;-76
2022/05/13 18:22:50;;;;;;;5.43;1.80;;;18.00;99.90;;;;;;4905854;29;20199;-75
2022/05/13 18:25:35;;;;;;;4.80;1.30;;;17.90;99.90;;;;;;4900717;29;20280;-76
2022/05/13 18:28:20;;;;;;;7.97;1.93;;;17.90;99.90;;;;;;4904568;29;20250;-74
2022/05/13 18:31:05;;;;;;;7.90;1.63;;;17.80;99.90;;;;;;4905698;29;20210;-74
2022/05/13 18:33:49;;;;;;;5.53;1.97;;;17.70;99.90;;;;;;4907122;29;20790;-74
2022/05/13 18:36:33;;;;;;;6.00;1.60;;;17.70;99.90;;;;;;4910108;29;20227;-75
2022/05/13 18:39:17;;;;;;;5.77;1.43;;;17.60;99.90;;;;;;4913225;29;20214;-74
2022/05/13 18:48:08;;;;;;;7.13;1.70;;;17.40;99.90;;;;;;4918672;29;20271;-76
2022/05/13 18:50:52;;;;;;;4.07;1.40;;;17.40;99.90;;;;;;4912215;29;20276;-74
2022/05/13 18:53:37;;;;;;;6.90;1.80;;;17.30;99.90;;;;;;4901463;29;20272;-75
2022/05/13 18:56:27;;;;;;;10.07;2.10;;;17.20;99.90;;;;;;4901858;29;20182;-77
2022/05/13 18:59:12;;;;;;;4.33;1.43;;;17.20;99.90;;;;;;4902959;29;20250;-76
2022/05/13 19:01:56;;;;;;;4.37;1.90;;;17.10;99.90;;;;;;4901962;29;20202;-74
2022/05/13 19:04:40;;;;;;;7.90;1.80;;;17.10;99.90;;;;;;4890471;29;20210;-74
2022/05/13 19:07:25;;;;;;;8.27;2.07;;;17.00;99.90;;;;;;4917034;29;20221;-74
2022/05/13 19:10:11;;;;;;;5.23;1.80;;;16.90;99.90;;;;;;4909537;29;20207;-75
2022/05/13 19:12:56;;;;;;;10.03;1.83;;;16.80;99.90;;;;;;4911566;29;20271;-75
2022/05/13 19:15:40;;;;;;;5.00;1.80;;;16.80;99.90;;;;;;4900463;29;20348;-76
2022/05/13 19:18:28;;;;;;;5.50;2.00;;;16.70;99.90;;;;;;4902657;29;20279;-74
2022/05/13 19:21:13;;;;;;;7.17;1.50;;;16.60;99.90;;;;;;4911794;29;20247;-75
2022/05/13 19:23:59;;;;;;;6.10;1.50;;;16.60;99.90;;;;;;4908200;29;20207;-75
2022/05/13 19:26:43;;;;;;;3.97;1.67;;;16.50;99.90;;;;;;4906304;29;20644;-74
2022/05/13 19:29:28;;;;;;;5.57;1.80;;;16.50;99.90;;;;;;4906082;29;20263;-77
2022/05/13 19:32:12;;;;;;;4.00;1.40;;;16.40;99.90;;;;;;4911395;29;20273;-76
2022/05/13 19:34:56;;;;;;;6.60;1.70;;;16.40;99.90;;;;;;4890142;29;20273;-75
2022/05/13 19:37:40;;;;;;;9.43;1.97;;;16.30;99.90;;;;;;4908868;29;20665;-73
2022/05/13 19:40:24;;;;;;;8.27;1.73;;;16.30;99.90;;;;;;4893486;29;20182;-75
2022/05/13 19:43:09;;;;;;;3.80;1.50;;;16.20;99.90;;;;;;4918553;29;20199;-74
2022/05/13 19:45:53;;;;;;;4.20;1.30;;;16.20;99.90;;;;;;4907568;29;20686;-76
2022/05/13 19:48:38;;;;;;;9.23;1.97;;;16.10;99.90;;;;;;4908991;29;20242;-76
2022/05/13 19:51:22;;;;;;;6.57;1.50;;;16.00;99.90;;;;;;4899326;29;20238;-75
2022/05/13 19:54:06;;;;;;;4.57;1.70;;;16.00;99.90;;;;;;4900920;29;20243;-74
2022/05/13 19:56:51;;;;;;;6.70;1.57;;;15.90;99.90;;;;;;4910557;29;20219;-76
2022/05/13 19:59:40;;;;;;;4.00;1.47;;;15.90;99.90;;;;;;4899497;29;20212;-76
2022/05/13 20:02:25;;;;;;;7.37;1.80;;;15.80;99.90;;;;;;4901692;29;20191;-76
2022/05/13 20:11:17;;;;;;;5.50;1.70;;;15.70;99.90;;;;;;4909675;29;20650;-76
2022/05/13 20:14:02;;;;;;;5.40;2.00;;;15.60;99.90;;;;;;4902654;29;20215;-75
2022/05/13 20:16:47;;;;;;;7.13;2.03;;;15.50;99.90;;;;;;4903922;29;20585;-74
2022/05/13 20:22:59;;;;;;;22.43;13.70;;;15.50;99.90;;;;;;4906217;29;20239;-76
2022/05/13 20:25:55;;;;;;;9.03;1.63;;;15.30;99.90;;;;;;4863043;29;20576;-75
2022/05/13 20:28:42;;;;;;;7.23;2.27;;;15.30;99.90;;;;;;4907279;29;20223;-74
2022/05/13 20:31:30;;;;;;;1.87;1.37;;;15.20;99.90;;;;;;4906975;29;20187;-76
2022/05/13 20:34:15;;;;;;;4.17;1.70;;;15.20;99.90;;;;;;4906430;29;20223;-74
2022/05/13 20:37:00;;;;;;;7.77;1.70;;;15.10;99.90;;;;;;4910183;29;20206;-76
2022/05/13 20:39:44;;;;;;;10.27;1.90;;;15.10;99.90;;;;;;4901758;29;20235;-74
2022/05/13 20:42:28;;;;;;;6.97;1.77;;;15.00;99.90;;;;;;4907499;29;20716;-76
2022/05/13 20:45:12;;;;;;;10.03;2.20;;;15.00;99.90;;;;;;4904156;29;20582;-76
2022/05/13 20:47:57;;;;;;;5.33;2.10;;;15.00;99.90;;;;;;4901971;29;20247;-75
2022/05/13 20:50:42;;;;;;;8.47;2.17;;;14.90;99.90;;;;;;4907340;29;20239;-74
2022/05/13 20:53:27;;;;;;;5.60;1.90;;;14.80;99.90;;;;;;4913612;29;20210;-75
2022/05/13 20:56:11;;;;;;;7.80;1.90;;;14.80;99.90;;;;;;4905425;29;20195;-75
2022/05/13 20:58:56;;;;;;;7.80;2.03;;;14.80;99.90;;;;;;4903496;29;20191;-76
2022/05/13 21:01:41;;;;;;;8.03;2.77;;;14.70;99.90;;;;;;4908294;29;20724;-77
2022/05/13 21:04:36;;;;;;;3.20;1.87;;;14.70;99.90;;;;;;4907107;29;20187;-78
2022/05/13 21:07:23;;;;;;;5.97;2.17;;;14.60;99.90;;;;;;4903522;29;20754;-76
2022/05/13 21:10:08;;;;;;;5.90;2.23;;;14.50;99.90;;;;;;4906611;29;20333;-76
2022/05/13 21:12:53;;;;;;;8.87;2.53;;;14.50;99.90;;;;;;4900706;29;20216;-75
2022/05/13 21:15:38;;;;;;;5.63;2.27;;;14.30;99.90;;;;;;4905318;29;20199;-75
2022/05/13 21:18:23;;;;;;;5.60;2.30;;;14.30;99.90;;;;;;4905877;29;20291;-75
2022/05/13 21:21:08;;;;;;;7.87;2.40;;;14.20;99.90;;;;;;4891590;29;20188;-78
2022/05/13 21:23:53;;;;;;;5.70;2.20;;;14.10;99.90;;;;;;4893125;29;20247;-76
2022/05/13 21:26:37;;;;;;;7.97;2.40;;;14.00;99.90;;;;;;4902960;29;20198;-75
2022/05/13 21:29:22;;;;;;;5.53;2.20;;;14.00;99.90;;;;;;4898371;29;20194;-75
2022/05/13 21:38:14;;;;;;;6.37;2.60;;;13.90;99.90;;;;;;4923109;29;20248;-75
2022/05/13 21:40:59;;;;;;;8.87;2.60;;;13.80;99.90;;;;;;4907856;29;20274;-75
2022/05/13 21:43:43;;;;;;;7.10;2.67;;;13.80;99.90;;;;;;4908134;29;20307;-77
2022/05/13 21:46:27;;;;;;;7.07;2.90;;;13.70;99.90;;;;;;4895293;29;20191;-75
2022/05/13 21:49:11;;;;;;;11.87;2.97;;;13.70;99.90;;;;;;4909453;29;20232;-76
2022/05/13 21:52:06;;;;;;;6.73;2.50;;;13.70;99.90;;;;;;4906340;29;20203;-76
2022/05/13 21:54:52;;;;;;;6.60;2.77;;;13.60;99.90;;;;;;4910483;29;20334;-76
2022/05/13 21:57:37;;;;;;;8.40;3.50;;;13.60;99.90;;;;;;4903314;29;20493;-74
2022/05/13 22:00:33;;;;;;;7.13;2.57;;;13.60;99.90;;;;;;4896459;29;20207;-77
2022/05/13 22:03:21;;;;;;;7.37;2.90;;;13.60;99.90;;;;;;4916559;29;20194;-77
2022/05/13 22:06:05;;;;;;;5.50;2.73;;;13.50;99.90;;;;;;4907862;29;20192;-76